sensor_id;sensor_type;location;lat;lon;timestamp;pressure;altitude;pressure_sealevel;temperature;humidity
12360;BME280;6244;51.460;7.090;2023-01-27T00:00:58;101351.31;;;3.36;76.70
12360;BME280;6244;51.460;7.090;2023-01-27T00:05:55;101349.56;;;3.38;76.65
12360;BME280;6244;51.460;7.090;2023-01-27T00:10:57;101344.34;;;3.40;76.75
12360;BME280;6244;51.460;7.090;2023-01-27T00:16:08;101350.41;;;3.40;76.54
12360;BME280;6244;51.460;7.090;2023-01-27T00:21:05;101348.69;;;3.39;76.42
12360;BME280;6244;51.460;7.090;2023-01-27T00:26:20;101358.19;;;3.40;76.43
12360;BME280;6244;51.460;7.090;2023-01-27T00:31:16;101359.03;;;3.41;76.73
12360;BME280;6244;51.460;7.090;2023-01-27T00:36:30;101364.28;;;3.35;76.65
12360;BME280;6244;51.460;7.090;2023-01-27T00:41:28;101364.25;;;3.38;76.49
12360;BME280;6244;51.460;7.090;2023-01-27T00:46:25;101361.66;;;3.38;76.63
12360;BME280;6244;51.460;7.090;2023-01-27T00:51:21;101368.56;;;3.40;76.52
12360;BME280;6244;51.460;7.090;2023-01-27T00:56:18;101365.97;;;3.39;76.75
12360;BME280;6244;51.460;7.090;2023-01-27T01:01:16;101371.13;;;3.42;76.54
12360;BME280;6244;51.460;7.090;2023-01-27T01:06:15;101368.53;;;3.42;76.43
12360;BME280;6244;51.460;7.090;2023-01-27T01:11:14;101363.38;;;3.40;76.59
12360;BME280;6244;51.460;7.090;2023-01-27T01:16:12;101371.16;;;3.40;76.41
12360;BME280;6244;51.460;7.090;2023-01-27T01:21:11;101372.88;;;3.41;76.58
12360;BME280;6244;51.460;7.090;2023-01-27T01:26:08;101387.56;;;3.42;76.52
12360;BME280;6244;51.460;7.090;2023-01-27T01:31:06;101379.75;;;3.44;76.46
12360;BME280;6244;51.460;7.090;2023-01-27T01:36:04;101388.41;;;3.44;76.48
12360;BME280;6244;51.460;7.090;2023-01-27T01:41:02;101396.19;;;3.43;76.41
12360;BME280;6244;51.460;7.090;2023-01-27T01:46:00;101405.72;;;3.42;76.62
12360;BME280;6244;51.460;7.090;2023-01-27T01:51:00;101401.41;;;3.41;76.32
12360;BME280;6244;51.460;7.090;2023-01-27T01:56:04;101420.41;;;3.43;76.55
12360;BME280;6244;51.460;7.090;2023-01-27T02:01:03;101414.38;;;3.41;76.57
12360;BME280;6244;51.460;7.090;2023-01-27T02:06:01;101418.72;;;3.41;76.64
12360;BME280;6244;51.460;7.090;2023-01-27T02:10:58;101421.31;;;3.39;76.64
12360;BME280;6244;51.460;7.090;2023-01-27T02:15:55;101423.94;;;3.38;76.62
12360;BME280;6244;51.460;7.090;2023-01-27T02:20:52;101429.97;;;3.38;76.43
12360;BME280;6244;51.460;7.090;2023-01-27T02:25:54;101420.47;;;3.37;76.44
12360;BME280;6244;51.460;7.090;2023-01-27T02:30:53;101419.63;;;3.37;76.54
12360;BME280;6244;51.460;7.090;2023-01-27T02:35:55;101417.88;;;3.37;76.36
12360;BME280;6244;51.460;7.090;2023-01-27T02:40:58;101416.16;;;3.35;76.22
12360;BME280;6244;51.460;7.090;2023-01-27T02:45:57;101414.44;;;3.32;76.21
12360;BME280;6244;51.460;7.090;2023-01-27T02:50:54;101429.13;;;3.33;76.21
12360;BME280;6244;51.460;7.090;2023-01-27T02:55:50;101423.09;;;3.31;76.20
12360;BME280;6244;51.460;7.090;2023-01-27T03:00:48;101422.22;;;3.32;76.24
12360;BME280;6244;51.460;7.090;2023-01-27T03:05:46;101423.97;;;3.32;76.54
12360;BME280;6244;51.460;7.090;2023-01-27T03:10:49;101423.97;;;3.32;76.14
12360;BME280;6244;51.460;7.090;2023-01-27T03:15:46;101423.97;;;3.32;76.14
12360;BME280;6244;51.460;7.090;2023-01-27T03:21:03;101424.81;;;3.32;76.20
12360;BME280;6244;51.460;7.090;2023-01-27T03:26:01;101417.06;;;3.31;76.33
12360;BME280;6244;51.460;7.090;2023-01-27T03:31:02;101423.09;;;3.31;76.40
12360;BME280;6244;51.460;7.090;2023-01-27T03:36:00;101418.81;;;3.30;76.33
12360;BME280;6244;51.460;7.090;2023-01-27T03:41:16;101413.59;;;3.30;76.45
12360;BME280;6244;51.460;7.090;2023-01-27T03:46:30;101411.91;;;3.28;76.78
12360;BME280;6244;51.460;7.090;2023-01-27T03:51:27;101429.16;;;3.30;76.46
12360;BME280;6244;51.460;7.090;2023-01-27T03:56:24;101425.72;;;3.30;76.70
12360;BME280;6244;51.460;7.090;2023-01-27T04:01:22;101413.63;;;3.29;76.63
12360;BME280;6244;51.460;7.090;2023-01-27T04:06:21;101418.81;;;3.29;76.92
12360;BME280;6244;51.460;7.090;2023-01-27T04:11:37;101418.81;;;3.29;76.78
12360;BME280;6244;51.460;7.090;2023-01-27T04:16:55;101421.41;;;3.29;76.91
12360;BME280;6244;51.460;7.090;2023-01-27T04:21:52;101414.50;;;3.29;76.81
12360;BME280;6244;51.460;7.090;2023-01-27T04:26:53;101428.31;;;3.30;77.06
12360;BME280;6244;51.460;7.090;2023-01-27T04:31:50;101424.00;;;3.29;77.09
12360;BME280;6244;51.460;7.090;2023-01-27T04:36:47;101430.06;;;3.28;76.80
12360;BME280;6244;51.460;7.090;2023-01-27T04:41:44;101429.16;;;3.30;77.05
12360;BME280;6244;51.460;7.090;2023-01-27T04:46:42;101435.25;;;3.29;77.10
12360;BME280;6244;51.460;7.090;2023-01-27T04:51:38;101435.25;;;3.29;77.15
12360;BME280;6244;51.460;7.090;2023-01-27T04:56:36;101445.59;;;3.31;77.24
12360;BME280;6244;51.460;7.090;2023-01-27T05:01:33;101450.78;;;3.31;77.26
12360;BME280;6244;51.460;7.090;2023-01-27T05:06:31;101456.81;;;3.31;77.19
12360;BME280;6244;51.460;7.090;2023-01-27T05:11:28;101448.22;;;3.29;77.23
12360;BME280;6244;51.460;7.090;2023-01-27T05:16:24;101455.09;;;3.32;77.25
12360;BME280;6244;51.460;7.090;2023-01-27T05:21:23;101455.09;;;3.32;77.28
12360;BME280;6244;51.460;7.090;2023-01-27T05:26:25;101458.53;;;3.32;77.47
12360;BME280;6244;51.460;7.090;2023-01-27T05:31:23;101455.09;;;3.32;77.42
12360;BME280;6244;51.460;7.090;2023-01-27T05:36:21;101455.97;;;3.31;77.25
12360;BME280;6244;51.460;7.090;2023-01-27T05:41:18;101457.69;;;3.32;77.51
12360;BME280;6244;51.460;7.090;2023-01-27T05:46:18;101466.31;;;3.34;77.40
12360;BME280;6244;51.460;7.090;2023-01-27T05:51:16;101468.91;;;3.32;77.35
12360;BME280;6244;51.460;7.090;2023-01-27T05:56:14;101465.44;;;3.33;77.76
12360;BME280;6244;51.460;7.090;2023-01-27T06:01:13;101461.97;;;3.34;77.55
12360;BME280;6244;51.460;7.090;2023-01-27T06:06:13;101463.72;;;3.37;77.44
12360;BME280;6244;51.460;7.090;2023-01-27T06:11:10;101466.31;;;3.37;77.75
12360;BME280;6244;51.460;7.090;2023-01-27T06:16:09;101471.47;;;3.38;77.55
12360;BME280;6244;51.460;7.090;2023-01-27T06:21:06;101468.03;;;3.38;77.92
12360;BME280;6244;51.460;7.090;2023-01-27T06:26:06;101460.22;;;3.39;77.63
12360;BME280;6244;51.460;7.090;2023-01-27T06:31:04;101473.19;;;3.39;77.76
12360;BME280;6244;51.460;7.090;2023-01-27T06:36:01;101484.44;;;3.40;77.74
12360;BME280;6244;51.460;7.090;2023-01-27T06:40:59;101492.22;;;3.40;77.50
12360;BME280;6244;51.460;7.090;2023-01-27T06:45:57;101496.50;;;3.42;77.80
12360;BME280;6244;51.460;7.090;2023-01-27T06:50:55;101502.56;;;3.43;77.68
12360;BME280;6244;51.460;7.090;2023-01-27T06:55:55;101506.88;;;3.42;77.97
12360;BME280;6244;51.460;7.090;2023-01-27T07:00:52;101508.63;;;3.42;77.62
12360;BME280;6244;51.460;7.090;2023-01-27T07:05:51;101512.06;;;3.44;77.94
12360;BME280;6244;51.460;7.090;2023-01-27T07:10:48;101518.13;;;3.44;77.76
12360;BME280;6244;51.460;7.090;2023-01-27T07:15:45;101521.56;;;3.45;77.69
12360;BME280;6244;51.460;7.090;2023-01-27T07:20:41;101524.16;;;3.45;77.83
12360;BME280;6244;51.460;7.090;2023-01-27T07:25:39;101525.03;;;3.44;78.00
12360;BME280;6244;51.460;7.090;2023-01-27T07:30:36;101537.13;;;3.45;77.76
12360;BME280;6244;51.460;7.090;2023-01-27T07:35:34;101540.56;;;3.47;77.94
12360;BME280;6244;51.460;7.090;2023-01-27T07:40:30;101540.56;;;3.47;77.96
12360;BME280;6244;51.460;7.090;2023-01-27T07:45:29;101544.91;;;3.49;78.06
12360;BME280;6244;51.460;7.090;2023-01-27T07:50:25;101545.78;;;3.48;78.04
12360;BME280;6244;51.460;7.090;2023-01-27T07:55:22;101543.19;;;3.48;77.87
12360;BME280;6244;51.460;7.090;2023-01-27T08:00:19;101543.16;;;3.50;78.13
12360;BME280;6244;51.460;7.090;2023-01-27T08:05:18;101556.13;;;3.51;78.05
12360;BME280;6244;51.460;7.090;2023-01-27T08:10:17;101550.94;;;3.51;77.98
12360;BME280;6244;51.460;7.090;2023-01-27T08:15:14;101556.13;;;3.51;78.11
12360;BME280;6244;51.460;7.090;2023-01-27T08:20:11;101548.31;;;3.53;78.21
12360;BME280;6244;51.460;7.090;2023-01-27T08:25:09;101546.56;;;3.55;78.26
12360;BME280;6244;51.460;7.090;2023-01-27T08:30:07;101559.56;;;3.55;78.53
12360;BME280;6244;51.460;7.090;2023-01-27T08:35:04;101566.47;;;3.56;78.38
12360;BME280;6244;51.460;7.090;2023-01-27T08:40:00;101554.34;;;3.55;78.36
12360;BME280;6244;51.460;7.090;2023-01-27T08:44:58;101562.97;;;3.59;78.36
12360;BME280;6244;51.460;7.090;2023-01-27T08:49:55;101568.16;;;3.62;78.05
12360;BME280;6244;51.460;7.090;2023-01-27T08:54:52;101574.19;;;3.64;78.18
12360;BME280;6244;51.460;7.090;2023-01-27T08:59:49;101576.78;;;3.65;78.19
12360;BME280;6244;51.460;7.090;2023-01-27T09:04:46;101576.75;;;3.67;78.44
12360;BME280;6244;51.460;7.090;2023-01-27T09:09:45;101592.31;;;3.68;78.36
12360;BME280;6244;51.460;7.090;2023-01-27T09:14:41;101596.66;;;3.66;78.37
12360;BME280;6244;51.460;7.090;2023-01-27T09:19:38;101595.78;;;3.69;78.36
12360;BME280;6244;51.460;7.090;2023-01-27T09:24:36;101604.41;;;3.69;78.05
12360;BME280;6244;51.460;7.090;2023-01-27T09:29:32;101617.38;;;3.71;78.48
12360;BME280;6244;51.460;7.090;2023-01-27T09:34:30;101620.84;;;3.73;78.41
12360;BME280;6244;51.460;7.090;2023-01-27T09:39:28;101620.84;;;3.73;78.45
12360;BME280;6244;51.460;7.090;2023-01-27T09:44:54;101630.38;;;3.72;78.39
12360;BME280;6244;51.460;7.090;2023-01-27T09:55:20;101638.13;;;3.75;78.56
12360;BME280;6244;51.460;7.090;2023-01-27T10:00:32;101629.47;;;3.78;78.82
12360;BME280;6244;51.460;7.090;2023-01-27T10:05:44;101627.72;;;3.78;78.74
12360;BME280;6244;51.460;7.090;2023-01-27T10:10:57;101632.03;;;3.79;78.86
12360;BME280;6244;51.460;7.090;2023-01-27T10:21:21;101637.19;;;3.82;78.83
12360;BME280;6244;51.460;7.090;2023-01-27T10:26:28;101634.59;;;3.82;78.99
12360;BME280;6244;51.460;7.090;2023-01-27T10:31:33;101629.41;;;3.84;79.00
12360;BME280;6244;51.460;7.090;2023-01-27T10:36:38;101627.69;;;3.86;78.95
12360;BME280;6244;51.460;7.090;2023-01-27T10:41:44;101631.97;;;3.89;78.91
12360;BME280;6244;51.460;7.090;2023-01-27T10:46:50;101642.38;;;3.89;78.88
12360;BME280;6244;51.460;7.090;2023-01-27T10:51:53;101636.28;;;3.90;78.78
12360;BME280;6244;51.460;7.090;2023-01-27T10:56:54;101638.00;;;3.91;79.04
12360;BME280;6244;51.460;7.090;2023-01-27T11:01:55;101635.41;;;3.92;78.71
12360;BME280;6244;51.460;7.090;2023-01-27T11:06:54;101625.00;;;3.94;79.08
12360;BME280;6244;51.460;7.090;2023-01-27T11:11:52;101630.19;;;3.94;79.27
12360;BME280;6244;51.460;7.090;2023-01-27T11:16:51;101616.31;;;3.96;79.14
12360;BME280;6244;51.460;7.090;2023-01-27T11:21:52;101623.25;;;3.97;79.24
12360;BME280;6244;51.460;7.090;2023-01-27T11:26:55;101617.19;;;4.00;79.05
12360;BME280;6244;51.460;7.090;2023-01-27T11:31:55;101615.44;;;4.00;78.95
12360;BME280;6244;51.460;7.090;2023-01-27T11:36:54;101619.75;;;4.01;78.81
12360;BME280;6244;51.460;7.090;2023-01-27T11:41:52;101617.13;;;4.03;79.01
12360;BME280;6244;51.460;7.090;2023-01-27T11:46:50;101617.13;;;4.03;79.01
12360;BME280;6244;51.460;7.090;2023-01-27T11:51:47;101605.88;;;4.04;78.97
12360;BME280;6244;51.460;7.090;2023-01-27T11:56:47;101602.41;;;4.05;78.89
12360;BME280;6244;51.460;7.090;2023-01-27T12:01:49;101602.38;;;4.08;78.48
12360;BME280;6244;51.460;7.090;2023-01-27T12:06:48;101591.19;;;4.01;78.54
12360;BME280;6244;51.460;7.090;2023-01-27T12:11:49;101592.00;;;4.06;78.72
12360;BME280;6244;51.460;7.090;2023-01-27T12:17:05;101585.06;;;4.07;78.38
12360;BME280;6244;51.460;7.090;2023-01-27T12:22:07;101585.06;;;4.10;78.37
12360;BME280;6244;51.460;7.090;2023-01-27T12:27:16;101572.06;;;4.10;78.46
12360;BME280;6244;51.460;7.090;2023-01-27T12:32:17;101574.66;;;4.11;78.89
12360;BME280;6244;51.460;7.090;2023-01-27T12:37:20;101572.88;;;4.13;78.36
12360;BME280;6244;51.460;7.090;2023-01-27T12:42:35;101577.22;;;4.13;78.48
12360;BME280;6244;51.460;7.090;2023-01-27T12:47:32;101576.34;;;4.14;78.25
12360;BME280;6244;51.460;7.090;2023-01-27T12:52:29;101574.59;;;4.15;78.02
12360;BME280;6244;51.460;7.090;2023-01-27T12:57:27;101569.41;;;4.15;78.21
12360;BME280;6244;51.460;7.090;2023-01-27T13:02:30;101571.94;;;4.19;78.07
12360;BME280;6244;51.460;7.090;2023-01-27T13:07:30;101579.75;;;4.22;78.03
12360;BME280;6244;51.460;7.090;2023-01-27T13:12:30;101583.19;;;4.23;77.80
12360;BME280;6244;51.460;7.090;2023-01-27T13:17:35;101573.66;;;4.23;77.68
12360;BME280;6244;51.460;7.090;2023-01-27T13:22:40;101580.59;;;4.24;77.47
12360;BME280;6244;51.460;7.090;2023-01-27T13:27:38;101584.88;;;4.27;76.97
12360;BME280;6244;51.460;7.090;2023-01-27T13:32:38;101590.91;;;4.29;76.92
12360;BME280;6244;51.460;7.090;2023-01-27T13:37:39;101594.38;;;4.28;76.80
12360;BME280;6244;51.460;7.090;2023-01-27T13:42:42;101590.06;;;4.28;76.21
12360;BME280;6244;51.460;7.090;2023-01-27T13:47:48;101590.88;;;4.32;76.21
12360;BME280;6244;51.460;7.090;2023-01-27T13:52:49;101594.34;;;4.32;76.05
12360;BME280;6244;51.460;7.090;2023-01-27T13:57:57;101603.00;;;4.34;75.79
12360;BME280;6244;51.460;7.090;2023-01-27T14:03:18;101600.38;;;4.33;75.57
12360;BME280;6244;51.460;7.090;2023-01-27T14:08:34;101606.47;;;4.32;75.40
12360;BME280;6244;51.460;7.090;2023-01-27T14:13:46;101613.38;;;4.33;75.52
12360;BME280;6244;51.460;7.090;2023-01-27T14:18:50;101620.28;;;4.34;75.27
12360;BME280;6244;51.460;7.090;2023-01-27T14:23:56;101618.56;;;4.33;75.09
12360;BME280;6244;51.460;7.090;2023-01-27T14:29:06;101615.97;;;4.33;75.31
12360;BME280;6244;51.460;7.090;2023-01-27T14:39:41;101621.19;;;4.31;75.29
12360;BME280;6244;51.460;7.090;2023-01-27T14:44:48;101619.50;;;4.27;75.31
12360;BME280;6244;51.460;7.090;2023-01-27T14:49:57;101620.34;;;4.29;75.41
12360;BME280;6244;51.460;7.090;2023-01-27T15:00:31;101622.13;;;4.26;75.12
12360;BME280;6244;51.460;7.090;2023-01-27T15:05:35;101622.94;;;4.29;75.65
12360;BME280;6244;51.460;7.090;2023-01-27T15:10:40;101628.13;;;4.31;75.45
12360;BME280;6244;51.460;7.090;2023-01-27T15:26:20;101654.09;;;4.31;75.52
12360;BME280;6244;51.460;7.090;2023-01-27T15:31:24;101662.78;;;4.30;75.59
12360;BME280;6244;51.460;7.090;2023-01-27T15:36:35;101661.06;;;4.29;75.29
12360;BME280;6244;51.460;7.090;2023-01-27T15:41:33;101666.25;;;4.29;75.59
12360;BME280;6244;51.460;7.090;2023-01-27T15:46:32;101673.16;;;4.31;75.33
12360;BME280;6244;51.460;7.090;2023-01-27T15:51:33;101678.34;;;4.31;75.27
12360;BME280;6244;51.460;7.090;2023-01-27T15:56:44;101679.25;;;4.29;75.17
12360;BME280;6244;51.460;7.090;2023-01-27T16:01:41;101686.16;;;4.30;75.30
12360;BME280;6244;51.460;7.090;2023-01-27T16:06:44;101693.97;;;4.30;74.96
12360;BME280;6244;51.460;7.090;2023-01-27T16:11:59;101696.56;;;4.28;74.94
12360;BME280;6244;51.460;7.090;2023-01-27T16:17:17;101692.25;;;4.27;74.82
12360;BME280;6244;51.460;7.090;2023-01-27T16:22:16;101697.44;;;4.29;75.19
12360;BME280;6244;51.460;7.090;2023-01-27T16:27:29;101699.19;;;4.27;74.84
12360;BME280;6244;51.460;7.090;2023-01-27T16:32:35;101700.06;;;4.26;74.97
12360;BME280;6244;51.460;7.090;2023-01-27T16:37:35;101707.84;;;4.26;74.98
12360;BME280;6244;51.460;7.090;2023-01-27T16:42:36;101705.25;;;4.26;75.05
12360;BME280;6244;51.460;7.090;2023-01-27T16:47:40;101703.56;;;4.23;75.17
12360;BME280;6244;51.460;7.090;2023-01-27T16:52:38;101714.81;;;4.24;75.12
12360;BME280;6244;51.460;7.090;2023-01-27T16:57:42;101720.88;;;4.23;74.87
12360;BME280;6244;51.460;7.090;2023-01-27T17:02:41;101733.00;;;4.21;75.05
12360;BME280;6244;51.460;7.090;2023-01-27T17:07:37;101733.00;;;4.21;75.35
12360;BME280;6244;51.460;7.090;2023-01-27T17:12:35;101736.44;;;4.24;75.20
12360;BME280;6244;51.460;7.090;2023-01-27T17:17:37;101739.91;;;4.26;75.09
12360;BME280;6244;51.460;7.090;2023-01-27T17:22:36;101737.28;;;4.28;75.63
12360;BME280;6244;51.460;7.090;2023-01-27T17:27:36;101739.91;;;4.26;75.67
12360;BME280;6244;51.460;7.090;2023-01-27T17:32:36;101750.25;;;4.29;75.71
12360;BME280;6244;51.460;7.090;2023-01-27T17:37:39;101747.66;;;4.29;75.92
12360;BME280;6244;51.460;7.090;2023-01-27T17:42:37;101745.91;;;4.30;76.12
12360;BME280;6244;51.460;7.090;2023-01-27T17:47:34;101748.53;;;4.30;76.13
12360;BME280;6244;51.460;7.090;2023-01-27T17:52:32;101744.19;;;4.29;75.91
12360;BME280;6244;51.460;7.090;2023-01-27T17:57:29;101754.59;;;4.29;76.11
12360;BME280;6244;51.460;7.090;2023-01-27T18:02:33;101751.16;;;4.25;76.43
12360;BME280;6244;51.460;7.090;2023-01-27T18:07:32;101759.81;;;4.26;76.49
12360;BME280;6244;51.460;7.090;2023-01-27T18:12:33;101753.75;;;4.25;76.48
12360;BME280;6244;51.460;7.090;2023-01-27T18:17:30;101765.03;;;4.23;76.47
12360;BME280;6244;51.460;7.090;2023-01-27T18:22:26;101761.59;;;4.22;76.66
12360;BME280;6244;51.460;7.090;2023-01-27T18:27:29;101758.97;;;4.21;76.38
12360;BME280;6244;51.460;7.090;2023-01-27T18:32:27;101765.97;;;4.14;76.37
12360;BME280;6244;51.460;7.090;2023-01-27T18:37:32;101777.19;;;4.16;76.60
12360;BME280;6244;51.460;7.090;2023-01-27T18:42:31;101778.91;;;4.17;76.31
12360;BME280;6244;51.460;7.090;2023-01-27T18:47:32;101783.25;;;4.17;76.42
12360;BME280;6244;51.460;7.090;2023-01-27T18:52:30;101797.13;;;4.14;76.41
12360;BME280;6244;51.460;7.090;2023-01-27T18:57:26;101794.53;;;4.14;76.12
12360;BME280;6244;51.460;7.090;2023-01-27T19:02:25;101785.91;;;4.12;75.93
12360;BME280;6244;51.460;7.090;2023-01-27T19:07:22;101801.44;;;4.15;75.93
12360;BME280;6244;51.460;7.090;2023-01-27T19:12:19;101801.47;;;4.13;76.14
12360;BME280;6244;51.460;7.090;2023-01-27T19:17:18;101801.47;;;4.12;76.09
12360;BME280;6244;51.460;7.090;2023-01-27T19:22:18;101800.63;;;4.11;76.12
12360;BME280;6244;51.460;7.090;2023-01-27T19:27:16;101806.69;;;4.12;75.84
12360;BME280;6244;51.460;7.090;2023-01-27T19:32:14;101802.34;;;4.11;75.72
12360;BME280;6244;51.460;7.090;2023-01-27T19:37:16;101805.81;;;4.10;75.55
12360;BME280;6244;51.460;7.090;2023-01-27T19:42:15;101811.03;;;4.10;75.81
12360;BME280;6244;51.460;7.090;2023-01-27T19:47:12;101813.59;;;4.08;75.51
12360;BME280;6244;51.460;7.090;2023-01-27T19:52:09;101818.81;;;4.07;75.22
12360;BME280;6244;51.460;7.090;2023-01-27T19:57:10;101822.28;;;4.06;75.10
12360;BME280;6244;51.460;7.090;2023-01-27T20:02:11;101824.00;;;4.05;74.79
12360;BME280;6244;51.460;7.090;2023-01-27T20:07:11;101819.69;;;4.04;74.61
12360;BME280;6244;51.460;7.090;2023-01-27T20:12:10;101824.88;;;4.04;74.86
12360;BME280;6244;51.460;7.090;2023-01-27T20:17:10;101824.03;;;4.04;74.75
12360;BME280;6244;51.460;7.090;2023-01-27T20:22:11;101826.63;;;4.04;74.43
12360;BME280;6244;51.460;7.090;2023-01-27T20:27:08;101829.22;;;4.02;74.42
12360;BME280;6244;51.460;7.090;2023-01-27T20:32:05;101830.97;;;4.02;74.34
12360;BME280;6244;51.460;7.090;2023-01-27T20:37:05;101831.84;;;4.02;74.46
12360;BME280;6244;51.460;7.090;2023-01-27T20:42:04;101832.72;;;4.00;74.11
12360;BME280;6244;51.460;7.090;2023-01-27T20:47:05;101830.97;;;4.00;74.17
12360;BME280;6244;51.460;7.090;2023-01-27T20:52:02;101835.31;;;4.00;74.12
12360;BME280;6244;51.460;7.090;2023-01-27T20:57:00;101837.03;;;4.01;74.00
12360;BME280;6244;51.460;7.090;2023-01-27T21:01:57;101841.38;;;3.99;74.00
12360;BME280;6244;51.460;7.090;2023-01-27T21:06:53;101837.91;;;4.00;73.73
12360;BME280;6244;51.460;7.090;2023-01-27T21:11:50;101847.44;;;3.98;73.93
12360;BME280;6244;51.460;7.090;2023-01-27T21:16:48;101842.25;;;3.98;74.08
12360;BME280;6244;51.460;7.090;2023-01-27T21:21:44;101837.03;;;3.96;73.80
12360;BME280;6244;51.460;7.090;2023-01-27T21:26:41;101847.44;;;3.96;73.87
12360;BME280;6244;51.460;7.090;2023-01-27T21:31:38;101846.56;;;3.94;74.01
12360;BME280;6244;51.460;7.090;2023-01-27T21:36:37;101839.66;;;3.95;73.94
12360;BME280;6244;51.460;7.090;2023-01-27T21:41:33;101841.38;;;3.94;73.68
12360;BME280;6244;51.460;7.090;2023-01-27T21:46:47;101844.03;;;3.87;73.76
12360;BME280;6244;51.460;7.090;2023-01-27T21:51:45;101836.22;;;3.90;73.75
12360;BME280;6244;51.460;7.090;2023-01-27T21:56:42;101843.16;;;3.89;73.84
12360;BME280;6244;51.460;7.090;2023-01-27T22:01:38;101840.56;;;3.89;73.80
12360;BME280;6244;51.460;7.090;2023-01-27T22:06:35;101831.03;;;3.88;73.75
12360;BME280;6244;51.460;7.090;2023-01-27T22:11:33;101836.25;;;3.87;73.40
12360;BME280;6244;51.460;7.090;2023-01-27T22:16:30;101844.03;;;3.85;73.17
12360;BME280;6244;51.460;7.090;2023-01-27T22:21:26;101829.31;;;3.84;73.29
12360;BME280;6244;51.460;7.090;2023-01-27T22:26:23;101831.91;;;3.82;72.92
12360;BME280;6244;51.460;7.090;2023-01-27T22:31:21;101843.16;;;3.83;72.72
12360;BME280;6244;51.460;7.090;2023-01-27T22:36:17;101835.38;;;3.81;72.50
12360;BME280;6244;51.460;7.090;2023-01-27T22:41:14;101835.38;;;3.80;72.42
12360;BME280;6244;51.460;7.090;2023-01-27T22:46:10;101837.13;;;3.79;72.21
12360;BME280;6244;51.460;7.090;2023-01-27T22:51:08;101835.41;;;3.78;72.20
12360;BME280;6244;51.460;7.090;2023-01-27T22:56:05;101838.00;;;3.78;71.97
12360;BME280;6244;51.460;7.090;2023-01-27T23:01:03;101835.41;;;3.77;71.82
12360;BME280;6244;51.460;7.090;2023-01-27T23:06:03;101851.00;;;3.75;71.92
12360;BME280;6244;51.460;7.090;2023-01-27T23:11:02;101847.53;;;3.75;71.65
12360;BME280;6244;51.460;7.090;2023-01-27T23:15:59;101856.19;;;3.74;71.53
12360;BME280;6244;51.460;7.090;2023-01-27T23:21:01;101855.31;;;3.72;71.30
12360;BME280;6244;51.460;7.090;2023-01-27T23:25:58;101857.91;;;3.72;71.33
12360;BME280;6244;51.460;7.090;2023-01-27T23:30:55;101862.25;;;3.71;71.31
12360;BME280;6244;51.460;7.090;2023-01-27T23:35:54;101866.56;;;3.69;71.15
12360;BME280;6244;51.460;7.090;2023-01-27T23:40:51;101864.00;;;3.68;71.21
12360;BME280;6244;51.460;7.090;2023-01-27T23:45:50;101871.78;;;3.68;70.87
12360;BME280;6244;51.460;7.090;2023-01-27T23:50:48;101876.97;;;3.68;71.05
12360;BME280;6244;51.460;7.090;2023-01-27T23:55:53;101863.13;;;3.66;70.92
